Seabulk Challenge — KNJL — position and weather

sailwx.info

Track history (hours):
 
Tides and Currents Weather Stations Pressure Air Temp Water Temp Dewpoint Dewpoint Depression Visibility Wind Speed Wind Dir Waves Ship Positions

Seabulk Challenge

Owner: Seabulk Tankers, Inc., Fort Lauderdale, FL. More information available from US FCC via Universal Licensing System and Coast Guard Vessel Documentation Center.

Last reported at 2017-Apr-23 00:09 UTC. Time now 2017-Apr-24 23:10 UTC.
Position N 29°43' W 095°01'.

Length 192 m; draft 8.7 m.

Type: Tanker. MMSI: 303104000.

Date/timePositionNaut miles runAvg speedWind from/ knotsBaromVisibWave heightAir tempDewpointWater temp
2017-Apr-23 00:09N 29°43' W 095°01'3 6.9
2017-Apr-22 23:46N 29°44' W 095°03'  
2017-Apr-18 23:50N 25°14' W 080°06'412.5
2017-Apr-18 23:30N 25°17' W 080°04'612.3
2017-Apr-18 23:00N 25°23' W 080°01'612.1
2017-Apr-18 22:30N 25°29' W 080°01'612.4
2017-Apr-18 22:00N 25°35' W 080°01'612.3
2017-Apr-18 21:30N 25°41' W 080°00'612.6
2017-Apr-18 21:00N 25°48' W 079°60'612.8
2017-Apr-18 20:30N 25°54' W 079°59'713.4
2017-Apr-18 20:00N 26°01' W 079°59'713.5
2017-Apr-18 19:30N 26°07' W 079°58'713.2
2017-Apr-18 19:00N 26°14' W 079°58'713.0
2017-Apr-18 18:29N 26°21' W 079°58'713.3
2017-Apr-18 18:00N 26°27' W 079°57'713.2
2017-Apr-18 17:30N 26°34' W 079°57'1012.7
2017-Apr-18 16:44N 26°44' W 079°56'312.3
2017-Apr-18 16:29N 26°47' W 079°56'611.9
2017-Apr-18 16:00N 26°52' W 079°56'611.3
2017-Apr-18 15:30N 26°58' W 079°55'511.0
2017-Apr-18 15:00N 27°03' W 079°56'610.9
2017-Apr-18 14:28N 27°09' W 079°57'22114.5
2017-Apr-17 23:14N 30°48' W 080°30'314.9
2017-Apr-17 23:00N 30°51' W 080°30'3515.1
2017-Apr-17 20:41N 31°16' W 080°01'315.3
2017-Apr-17 20:30N 31°18' W 079°58'1015.3
2017-Apr-17 19:51N 31°25' W 079°50'515.2
2017-Apr-17 19:30N 31°29' W 079°46'914.8
2017-Apr-17 18:55N 31°35' W 079°39'22014.7
2017-Apr-17 03:55N 34°05' W 076°28'3413.2
2017-Apr-17 01:20N 34°29' W 075°58'514.1
2017-Apr-17 00:58N 34°32' W 075°53'24913.3
2017-Apr-16 06:17N 38°37' W 074°52'3 9.9
2017-Apr-16 06:00N 38°39' W 074°54'510.1
2017-Apr-16 05:30N 38°43' W 074°58'5 9.5
2017-Apr-16 05:00N 38°46' W 075°02'510.2
2017-Apr-16 04:30N 38°51' W 075°04'612.3
2017-Apr-16 03:59N 38°57' W 075°07'612.8
2017-Apr-16 03:31N 39°03' W 075°10'713.8
2017-Apr-16 03:00N 39°09' W 075°14'714.0
2017-Apr-16 02:30N 39°15' W 075°19'714.8
2017-Apr-16 02:00N 39°20' W 075°25'815.4
2017-Apr-16 01:30N 39°26' W 075°32'715.0
2017-Apr-16 01:00N 39°33' W 075°33'713.9
2017-Apr-16 00:30N 39°40' W 075°32'815.2
2017-Apr-16 00:00N 39°47' W 075°28'714.1
2017-Apr-15 23:30N 39°51' W 075°20'611.4
2017-Apr-15 23:00N 39°52' W 075°13'4 8.7
2017-Apr-15 22:30N 39°54' W 075°08'4 8.0
2017-Apr-15 22:00N 39°58' W 075°06'1 1.4
2017-Apr-15 21:29N 39°59' W 075°06'0 0.0
2017-Apr-15 20:59N 39°59' W 075°06'0 0.0
2017-Apr-15 20:29N 39°59' W 075°06'0 0.0
2017-Apr-15 19:59N 39°59' W 075°06'0 0.0
2017-Apr-15 19:29N 39°59' W 075°06'0 0.0
2017-Apr-15 18:59N 39°59' W 075°06'0 0.0
2017-Apr-15 18:29N 39°59' W 075°06'0 0.0
2017-Apr-15 17:59N 39°59' W 075°06'0 0.0
2017-Apr-15 17:29N 39°59' W 075°06'0 0.0
2017-Apr-15 16:59N 39°59' W 075°06'0 0.0
2017-Apr-15 16:29N 39°59' W 075°06'0 0.0
2017-Apr-15 15:53N 39°59' W 075°06'0 0.0
2017-Apr-15 15:29N 39°59' W 075°06'0 0.0
2017-Apr-15 14:59N 39°59' W 075°06'0 0.0
2017-Apr-15 14:29N 39°59' W 075°06'0 0.0
2017-Apr-15 13:29N 39°59' W 075°06'0 0.0
2017-Apr-15 12:59N 39°59' W 075°06'0 0.0
2017-Apr-15 12:29N 39°59' W 075°06'0 0.0
2017-Apr-15 11:59N 39°59' W 075°06'0 0.0
2017-Apr-15 11:29N 39°59' W 075°06'0 0.0
2017-Apr-15 10:56N 39°59' W 075°06'0 0.0
2017-Apr-15 10:29N 39°59' W 075°06'0 0.0
2017-Apr-15 09:59N 39°59' W 075°06'0 0.0
2017-Apr-15 09:29N 39°59' W 075°06'0 0.0
2017-Apr-15 08:59N 39°59' W 075°06'0 0.0
2017-Apr-15 08:29N 39°59' W 075°06'0 0.0
2017-Apr-15 07:59N 39°59' W 075°06'0 0.0
2017-Apr-15 07:29N 39°59' W 075°06'0 0.0
2017-Apr-15 06:59N 39°59' W 075°06'0 0.0
2017-Apr-15 06:29N 39°59' W 075°06'0 0.0
2017-Apr-15 05:59N 39°59' W 075°06'0 0.0
2017-Apr-15 05:29N 39°59' W 075°06'0 0.0
2017-Apr-15 04:59N 39°59' W 075°06'0 0.0
2017-Apr-15 04:29N 39°59' W 075°06'0 0.0
2017-Apr-15 03:59N 39°59' W 075°06'0 0.0
2017-Apr-15 03:29N 39°59' W 075°06'0 0.0
2017-Apr-15 02:59N 39°59' W 075°06'0 0.0
2017-Apr-15 02:29N 39°59' W 075°06'0 0.0
2017-Apr-15 01:59N 39°59' W 075°06'0 0.0
2017-Apr-15 01:29N 39°59' W 075°06'0 0.0
2017-Apr-15 00:59N 39°59' W 075°06'0 0.0
2017-Apr-15 00:29N 39°59' W 075°06'0 0.0
2017-Apr-14 23:59N 39°59' W 075°06'0 0.0
2017-Apr-14 23:29N 39°59' W 075°06'0 0.0
2017-Apr-14 22:59N 39°59' W 075°06'0 0.0
2017-Apr-14 22:26N 39°59' W 075°06'0 0.0
2017-Apr-14 21:59N 39°59' W 075°06'0 0.0
2017-Apr-14 21:29N 39°59' W 075°06'0 0.0
2017-Apr-14 20:53N 39°59' W 075°06'0 0.0
2017-Apr-14 20:29N 39°59' W 075°06'0 0.0
2017-Apr-14 19:59N 39°59' W 075°06'0 0.0
2017-Apr-14 19:29N 39°59' W 075°06'0 0.0
2017-Apr-14 18:59N 39°59' W 075°06'0 0.0
2017-Apr-14 18:29N 39°59' W 075°06'0 0.0
2017-Apr-14 17:59N 39°59' W 075°06'0 0.0
2017-Apr-14 17:29N 39°59' W 075°06'0 0.0
2017-Apr-14 16:59N 39°59' W 075°06'0 0.0
2017-Apr-14 16:29N 39°59' W 075°06'0 0.0
2017-Apr-14 15:59N 39°59' W 075°06'0 0.0
2017-Apr-14 15:29N 39°59' W 075°06'0 0.0
2017-Apr-14 14:59N 39°59' W 075°06'0 0.0
2017-Apr-14 14:29N 39°59' W 075°06'0 0.0
2017-Apr-14 13:29N 39°59' W 075°06'0 0.0
2017-Apr-14 12:59N 39°59' W 075°06'0 0.0
2017-Apr-14 12:29N 39°59' W 075°06'0 0.0
2017-Apr-14 11:59N 39°59' W 075°06'0 0.0
2017-Apr-14 11:29N 39°59' W 075°06'0 0.0
2017-Apr-14 10:59N 39°59' W 075°06'0 0.0
2017-Apr-14 10:29N 39°59' W 075°06'0 0.0
2017-Apr-14 09:59N 39°59' W 075°06'0 0.0
2017-Apr-14 09:29N 39°59' W 075°06'0 0.4
2017-Apr-14 09:00N 39°59' W 075°05'0 0.3
2017-Apr-14 08:31N 39°59' W 075°05'2 4.4
2017-Apr-14 08:00N 39°58' W 075°08'3 6.3
2017-Apr-14 07:30N 39°55' W 075°08'3 6.0
2017-Apr-14 07:00N 39°53' W 075°11'4 8.0
2017-Apr-14 06:30N 39°51' W 075°16'5 9.7
2017-Apr-14 06:00N 39°50' W 075°22'511.0
2017-Apr-14 05:30N 39°47' W 075°28'611.7
2017-Apr-14 05:00N 39°42' W 075°31'612.7
2017-Apr-14 04:30N 39°36' W 075°34'714.6
2017-Apr-14 04:00N 39°28' W 075°34'816.0
2017-Apr-14 03:30N 39°22' W 075°27'816.5
2017-Apr-14 03:00N 39°16' W 075°20'816.0
2017-Apr-14 02:30N 39°09' W 075°15'816.0
2017-Apr-14 02:00N 39°02' W 075°10'815.8
2017-Apr-14 01:30N 38°55' W 075°06'2 3.3
2017-Apr-14 01:00N 38°55' W 075°08'0 0.1
2017-Apr-13 17:29N 38°55' W 075°07'0 0.1
2017-Apr-13 16:56N 38°55' W 075°07'0 0.1
2017-Apr-13 16:29N 38°55' W 075°07'0 0.0
2017-Apr-13 11:35N 38°55' W 075°08'0 0.0
2017-Apr-13 11:17N 38°55' W 075°08'0 0.1
2017-Apr-13 10:50N 38°55' W 075°08'0 0.2
2017-Apr-13 10:29N 38°55' W 075°08'0 0.1
2017-Apr-13 09:20N 38°55' W 075°07'0 0.1
2017-Apr-13 08:59N 38°55' W 075°07'0 0.1
2017-Apr-13 08:29N 38°55' W 075°07'0 0.0
2017-Apr-13 07:59N 38°55' W 075°07'0 0.1
2017-Apr-13 07:23N 38°55' W 075°07'0 0.1
2017-Apr-13 06:59N 38°55' W 075°07'0 0.1
2017-Apr-13 06:29N 38°55' W 075°07'0 0.0
2017-Apr-13 05:59N 38°55' W 075°07'0 0.0
2017-Apr-13 05:29N 38°55' W 075°07'0 0.0
2017-Apr-13 04:56N 38°55' W 075°07'0 0.2
2017-Apr-13 04:29N 38°55' W 075°07'0 0.2
2017-Apr-13 03:56N 38°55' W 075°07'0 0.1
2017-Apr-13 03:29N 38°55' W 075°07'0 0.0
2017-Apr-13 02:53N 38°55' W 075°07'0 0.0
2017-Apr-13 02:29N 38°55' W 075°08'0 0.0
2017-Apr-13 01:59N 38°55' W 075°08'0 0.0
2017-Apr-13 01:11N 38°55' W 075°08'  
Track history (hours):
 
Tides and Currents Weather Stations Pressure Air Temp Water Temp Dewpoint Dewpoint Depression Visibility Wind Speed Wind Dir Waves Ship Positions

Seabulk Challenge

Owner: Seabulk Tankers, Inc., Fort Lauderdale, FL. More information available from US FCC via Universal Licensing System and Coast Guard Vessel Documentation Center.

Last reported at 2017-Apr-23 00:09 UTC. Time now 2017-Apr-24 23:10 UTC.
Position N 29°43' W 095°01'.

Length 192 m; draft 8.7 m.

Type: Tanker. MMSI: 303104000.

Date/timePositionNaut miles runAvg speedWind from/ knotsBaromVisibWave heightAir tempDewpointWater temp
2017-Apr-23 00:09N 29°43' W 095°01'3 6.9
2017-Apr-22 23:46N 29°44' W 095°03'  
2017-Apr-18 23:50N 25°14' W 080°06'412.5
2017-Apr-18 23:30N 25°17' W 080°04'612.3
2017-Apr-18 23:00N 25°23' W 080°01'612.1
2017-Apr-18 22:30N 25°29' W 080°01'612.4
2017-Apr-18 22:00N 25°35' W 080°01'612.3
2017-Apr-18 21:30N 25°41' W 080°00'612.6
2017-Apr-18 21:00N 25°48' W 079°60'612.8
2017-Apr-18 20:30N 25°54' W 079°59'713.4
2017-Apr-18 20:00N 26°01' W 079°59'713.5
2017-Apr-18 19:30N 26°07' W 079°58'713.2
2017-Apr-18 19:00N 26°14' W 079°58'713.0
2017-Apr-18 18:29N 26°21' W 079°58'713.3
2017-Apr-18 18:00N 26°27' W 079°57'713.2
2017-Apr-18 17:30N 26°34' W 079°57'1012.7
2017-Apr-18 16:44N 26°44' W 079°56'312.3
2017-Apr-18 16:29N 26°47' W 079°56'611.9
2017-Apr-18 16:00N 26°52' W 079°56'611.3
2017-Apr-18 15:30N 26°58' W 079°55'511.0
2017-Apr-18 15:00N 27°03' W 079°56'610.9
2017-Apr-18 14:28N 27°09' W 079°57'22114.5
2017-Apr-17 23:14N 30°48' W 080°30'314.9
2017-Apr-17 23:00N 30°51' W 080°30'3515.1
2017-Apr-17 20:41N 31°16' W 080°01'315.3
2017-Apr-17 20:30N 31°18' W 079°58'1015.3
2017-Apr-17 19:51N 31°25' W 079°50'515.2
2017-Apr-17 19:30N 31°29' W 079°46'914.8
2017-Apr-17 18:55N 31°35' W 079°39'22014.7
2017-Apr-17 03:55N 34°05' W 076°28'3413.2
2017-Apr-17 01:20N 34°29' W 075°58'514.1
2017-Apr-17 00:58N 34°32' W 075°53'24913.3
2017-Apr-16 06:17N 38°37' W 074°52'3 9.9
2017-Apr-16 06:00N 38°39' W 074°54'510.1
2017-Apr-16 05:30N 38°43' W 074°58'5 9.5
2017-Apr-16 05:00N 38°46' W 075°02'510.2
2017-Apr-16 04:30N 38°51' W 075°04'612.3
2017-Apr-16 03:59N 38°57' W 075°07'612.8
2017-Apr-16 03:31N 39°03' W 075°10'713.8
2017-Apr-16 03:00N 39°09' W 075°14'714.0
2017-Apr-16 02:30N 39°15' W 075°19'714.8
2017-Apr-16 02:00N 39°20' W 075°25'815.4
2017-Apr-16 01:30N 39°26' W 075°32'715.0
2017-Apr-16 01:00N 39°33' W 075°33'713.9
2017-Apr-16 00:30N 39°40' W 075°32'815.2
2017-Apr-16 00:00N 39°47' W 075°28'714.1
2017-Apr-15 23:30N 39°51' W 075°20'611.4
2017-Apr-15 23:00N 39°52' W 075°13'4 8.7
2017-Apr-15 22:30N 39°54' W 075°08'4 8.0
2017-Apr-15 22:00N 39°58' W 075°06'1 1.4
2017-Apr-15 21:29N 39°59' W 075°06'0 0.0
2017-Apr-15 20:59N 39°59' W 075°06'0 0.0
2017-Apr-15 20:29N 39°59' W 075°06'0 0.0
2017-Apr-15 19:59N 39°59' W 075°06'0 0.0
2017-Apr-15 19:29N 39°59' W 075°06'0 0.0
2017-Apr-15 18:59N 39°59' W 075°06'0 0.0
2017-Apr-15 18:29N 39°59' W 075°06'0 0.0
2017-Apr-15 17:59N 39°59' W 075°06'0 0.0
2017-Apr-15 17:29N 39°59' W 075°06'0 0.0
2017-Apr-15 16:59N 39°59' W 075°06'0 0.0
2017-Apr-15 16:29N 39°59' W 075°06'0 0.0
2017-Apr-15 15:53N 39°59' W 075°06'0 0.0
2017-Apr-15 15:29N 39°59' W 075°06'0 0.0
2017-Apr-15 14:59N 39°59' W 075°06'0 0.0
2017-Apr-15 14:29N 39°59' W 075°06'0 0.0
2017-Apr-15 13:29N 39°59' W 075°06'0 0.0
2017-Apr-15 12:59N 39°59' W 075°06'0 0.0
2017-Apr-15 12:29N 39°59' W 075°06'0 0.0
2017-Apr-15 11:59N 39°59' W 075°06'0 0.0
2017-Apr-15 11:29N 39°59' W 075°06'0 0.0
2017-Apr-15 10:56N 39°59' W 075°06'0 0.0
2017-Apr-15 10:29N 39°59' W 075°06'0 0.0
2017-Apr-15 09:59N 39°59' W 075°06'0 0.0
2017-Apr-15 09:29N 39°59' W 075°06'0 0.0
2017-Apr-15 08:59N 39°59' W 075°06'0 0.0
2017-Apr-15 08:29N 39°59' W 075°06'0 0.0
2017-Apr-15 07:59N 39°59' W 075°06'0 0.0
2017-Apr-15 07:29N 39°59' W 075°06'0 0.0
2017-Apr-15 06:59N 39°59' W 075°06'0 0.0
2017-Apr-15 06:29N 39°59' W 075°06'0 0.0
2017-Apr-15 05:59N 39°59' W 075°06'0 0.0
2017-Apr-15 05:29N 39°59' W 075°06'0 0.0
2017-Apr-15 04:59N 39°59' W 075°06'0 0.0
2017-Apr-15 04:29N 39°59' W 075°06'0 0.0
2017-Apr-15 03:59N 39°59' W 075°06'0 0.0
2017-Apr-15 03:29N 39°59' W 075°06'0 0.0
2017-Apr-15 02:59N 39°59' W 075°06'0 0.0
2017-Apr-15 02:29N 39°59' W 075°06'0 0.0
2017-Apr-15 01:59N 39°59' W 075°06'0 0.0
2017-Apr-15 01:29N 39°59' W 075°06'0 0.0
2017-Apr-15 00:59N 39°59' W 075°06'0 0.0
2017-Apr-15 00:29N 39°59' W 075°06'0 0.0
2017-Apr-14 23:59N 39°59' W 075°06'0 0.0
2017-Apr-14 23:29N 39°59' W 075°06'0 0.0
2017-Apr-14 22:59N 39°59' W 075°06'0 0.0
2017-Apr-14 22:26N 39°59' W 075°06'0 0.0
2017-Apr-14 21:59N 39°59' W 075°06'0 0.0
2017-Apr-14 21:29N 39°59' W 075°06'0 0.0
2017-Apr-14 20:53N 39°59' W 075°06'0 0.0
2017-Apr-14 20:29N 39°59' W 075°06'0 0.0
2017-Apr-14 19:59N 39°59' W 075°06'0 0.0
2017-Apr-14 19:29N 39°59' W 075°06'0 0.0
2017-Apr-14 18:59N 39°59' W 075°06'0 0.0
2017-Apr-14 18:29N 39°59' W 075°06'0 0.0
2017-Apr-14 17:59N 39°59' W 075°06'0 0.0
2017-Apr-14 17:29N 39°59' W 075°06'0 0.0
2017-Apr-14 16:59N 39°59' W 075°06'0 0.0
2017-Apr-14 16:29N 39°59' W 075°06'0 0.0
2017-Apr-14 15:59N 39°59' W 075°06'0 0.0
2017-Apr-14 15:29N 39°59' W 075°06'0 0.0
2017-Apr-14 14:59N 39°59' W 075°06'0 0.0
2017-Apr-14 14:29N 39°59' W 075°06'0 0.0
2017-Apr-14 13:29N 39°59' W 075°06'0 0.0
2017-Apr-14 12:59N 39°59' W 075°06'0 0.0
2017-Apr-14 12:29N 39°59' W 075°06'0 0.0
2017-Apr-14 11:59N 39°59' W 075°06'0 0.0
2017-Apr-14 11:29N 39°59' W 075°06'0 0.0
2017-Apr-14 10:59N 39°59' W 075°06'0 0.0
2017-Apr-14 10:29N 39°59' W 075°06'0 0.0
2017-Apr-14 09:59N 39°59' W 075°06'0 0.0
2017-Apr-14 09:29N 39°59' W 075°06'0 0.4
2017-Apr-14 09:00N 39°59' W 075°05'0 0.3
2017-Apr-14 08:31N 39°59' W 075°05'2 4.4
2017-Apr-14 08:00N 39°58' W 075°08'3 6.3
2017-Apr-14 07:30N 39°55' W 075°08'3 6.0
2017-Apr-14 07:00N 39°53' W 075°11'4 8.0
2017-Apr-14 06:30N 39°51' W 075°16'5 9.7
2017-Apr-14 06:00N 39°50' W 075°22'511.0
2017-Apr-14 05:30N 39°47' W 075°28'611.7
2017-Apr-14 05:00N 39°42' W 075°31'612.7
2017-Apr-14 04:30N 39°36' W 075°34'714.6
2017-Apr-14 04:00N 39°28' W 075°34'816.0
2017-Apr-14 03:30N 39°22' W 075°27'816.5
2017-Apr-14 03:00N 39°16' W 075°20'816.0
2017-Apr-14 02:30N 39°09' W 075°15'816.0
2017-Apr-14 02:00N 39°02' W 075°10'815.8
2017-Apr-14 01:30N 38°55' W 075°06'2 3.3
2017-Apr-14 01:00N 38°55' W 075°08'0 0.1
2017-Apr-13 17:29N 38°55' W 075°07'0 0.1
2017-Apr-13 16:56N 38°55' W 075°07'0 0.1
2017-Apr-13 16:29N 38°55' W 075°07'0 0.0
2017-Apr-13 11:35N 38°55' W 075°08'0 0.0
2017-Apr-13 11:17N 38°55' W 075°08'0 0.1
2017-Apr-13 10:50N 38°55' W 075°08'0 0.2
2017-Apr-13 10:29N 38°55' W 075°08'0 0.1
2017-Apr-13 09:20N 38°55' W 075°07'0 0.1
2017-Apr-13 08:59N 38°55' W 075°07'0 0.1
2017-Apr-13 08:29N 38°55' W 075°07'0 0.0
2017-Apr-13 07:59N 38°55' W 075°07'0 0.1
2017-Apr-13 07:23N 38°55' W 075°07'0 0.1
2017-Apr-13 06:59N 38°55' W 075°07'0 0.1
2017-Apr-13 06:29N 38°55' W 075°07'0 0.0
2017-Apr-13 05:59N 38°55' W 075°07'0 0.0
2017-Apr-13 05:29N 38°55' W 075°07'0 0.0
2017-Apr-13 04:56N 38°55' W 075°07'0 0.2
2017-Apr-13 04:29N 38°55' W 075°07'0 0.2
2017-Apr-13 03:56N 38°55' W 075°07'0 0.1
2017-Apr-13 03:29N 38°55' W 075°07'0 0.0
2017-Apr-13 02:53N 38°55' W 075°07'0 0.0
2017-Apr-13 02:29N 38°55' W 075°08'0 0.0
2017-Apr-13 01:59N 38°55' W 075°08'0 0.0
2017-Apr-13 01:11N 38°55' W 075°08'  

Dump ship's entire track history